Harrison, Michigan
Current Conditions -  °F | °C
As of 8:53 PM on Wednesday 26 Nov 2014 (Local Time) from KHTL Reporting Station
Overcast Overcast  
Wind Chill: 24°   Ceiling: 3600
Heat Index: 24°   Visibility: 10mi
Dew Point: 22°   Wind: 0mph
Humidity: 91%   Direction: NA
Pressure: 30.09"   Gusts: NA
Location:  44.02°N, 84.8°W
Report Text: KHTL 270153Z AUTO 00000KT 10SM OVC036 M04/M06 A3009 RMK AO2 SLP209 T10441056
Loading
Personal Weather Stations






























Interactive Weather Map New forecast layout! Learn more

10-Day Weather Forecast

Advertisements
Track Severe Weather on mobile